createdAt,value
2022-08-30T00:01:32.677Z,65.14
2022-08-30T00:04:01.046Z,65.38
2022-08-30T00:06:29.800Z,64.98
2022-08-30T00:08:57.270Z,65.30
2022-08-30T00:11:26.822Z,65.27
2022-08-30T00:13:56.752Z,65.84
2022-08-30T00:16:24.677Z,65.72
2022-08-30T00:18:52.369Z,65.60
2022-08-30T00:21:19.957Z,65.30
2022-08-30T00:23:47.353Z,65.29
2022-08-30T00:26:15.051Z,64.89
2022-08-30T00:28:42.501Z,64.78
2022-08-30T00:31:10.587Z,64.72
2022-08-30T00:33:43.127Z,64.62
2022-08-30T00:36:10.525Z,64.47
2022-08-30T00:38:37.916Z,65.40
2022-08-30T00:41:05.701Z,64.83
2022-08-30T00:43:36.682Z,64.32
2022-08-30T00:46:08.359Z,65.08
2022-08-30T00:48:40.901Z,65.31
2022-08-30T00:51:10.472Z,65.69
2022-08-30T00:53:42.145Z,65.41
2022-08-30T00:56:10.159Z,64.91
2022-08-30T00:58:41.040Z,66.39
2022-08-30T01:01:09.256Z,66.17
2022-08-30T01:03:38.813Z,65.30
2022-08-30T01:06:07.687Z,64.76
2022-08-30T01:08:35.561Z,66.04
2022-08-30T01:11:03.927Z,67.05
2022-08-30T01:13:31.870Z,66.21
2022-08-30T01:16:00.201Z,65.17
2022-08-30T01:18:28.989Z,65.76
2022-08-30T01:21:06.981Z,65.41
2022-08-30T01:23:39.717Z,65.91
2022-08-30T01:26:08.422Z,65.14
2022-08-30T01:28:36.095Z,65.39
2022-08-30T01:31:04.258Z,64.69
2022-08-30T01:33:32.048Z,64.93
2022-08-30T01:36:06.400Z,64.94
2022-08-30T01:38:46.616Z,64.63
2022-08-30T01:41:19.811Z,64.90
2022-08-30T01:43:49.261Z,64.81
2022-08-30T01:46:18.684Z,63.74
2022-08-30T01:48:50.211Z,63.52
2022-08-30T01:51:23.436Z,64.49
2022-08-30T01:53:50.856Z,64.08
2022-08-30T01:56:19.250Z,64.18
2022-08-30T01:58:47.020Z,64.41
2022-08-30T02:01:17.128Z,64.07
2022-08-30T02:03:45.749Z,63.26
2022-08-30T02:06:16.732Z,63.66
2022-08-30T02:08:44.369Z,64.89
2022-08-30T02:11:12.864Z,63.87
2022-08-30T02:13:41.688Z,63.71
2022-08-30T02:16:10.855Z,64.16
2022-08-30T02:18:39.377Z,65.18
2022-08-30T02:21:07.860Z,64.79
2022-08-30T02:23:35.927Z,64.39
2022-08-30T02:26:04.692Z,65.53
2022-08-30T02:28:32.214Z,65.33
2022-08-30T02:31:01.023Z,66.35
2022-08-30T02:33:28.874Z,65.51
2022-08-30T02:35:56.318Z,65.59
2022-08-30T02:38:24.834Z,65.41
2022-08-30T02:40:52.601Z,65.13
2022-08-30T02:43:20.009Z,65.17
2022-08-30T02:45:47.775Z,64.90
2022-08-30T02:48:15.965Z,65.69
2022-08-30T02:50:45.396Z,65.06
2022-08-30T02:53:14.133Z,65.29
2022-08-30T02:55:44.575Z,65.76
2022-08-30T02:58:12.508Z,65.40
2022-08-30T03:00:41.352Z,65.80
2022-08-30T03:03:09.052Z,64.82
2022-08-30T03:05:39.778Z,66.47
2022-08-30T03:08:08.186Z,66.79
2022-08-30T03:10:36.436Z,66.22
2022-08-30T03:13:05.330Z,65.71
2022-08-30T03:15:32.695Z,65.64
2022-08-30T03:18:00.361Z,65.88
2022-08-30T03:20:29.613Z,65.53
2022-08-30T03:22:57.000Z,65.77
2022-08-30T03:25:24.717Z,66.28
2022-08-30T03:27:52.094Z,67.49
2022-08-30T03:30:20.285Z,67.54
2022-08-30T03:32:48.043Z,66.00
2022-08-30T03:35:16.163Z,67.09
2022-08-30T03:37:44.300Z,67.22
2022-08-30T03:40:13.695Z,65.81
2022-08-30T03:42:41.511Z,67.24
2022-08-30T03:45:12.800Z,66.79
2022-08-30T03:47:41.005Z,67.36
2022-08-30T03:50:10.238Z,67.40
2022-08-30T03:52:38.231Z,66.59
2022-08-30T03:55:06.735Z,65.98
2022-08-30T03:57:34.603Z,65.28
2022-08-30T04:00:06.846Z,67.56
2022-08-30T04:02:38.799Z,67.50
2022-08-30T04:05:07.119Z,68.09
2022-08-30T04:07:34.634Z,67.29
2022-08-30T04:10:03.362Z,68.14
2022-08-30T04:12:31.001Z,68.00
2022-08-30T04:14:58.557Z,68.52
2022-08-30T04:17:25.992Z,68.29
2022-08-30T04:19:53.693Z,68.14
2022-08-30T04:22:22.060Z,68.93
2022-08-30T04:24:49.451Z,68.12
2022-08-30T04:27:20.260Z,68.89
2022-08-30T04:29:47.743Z,70.11
2022-08-30T04:32:16.668Z,68.77
2022-08-30T04:34:44.330Z,69.29
2022-08-30T04:37:13.878Z,69.76
2022-08-30T04:39:42.658Z,69.24
2022-08-30T04:42:11.351Z,72.05
2022-08-30T04:44:38.747Z,72.25
2022-08-30T04:47:06.217Z,70.65
2022-08-30T04:49:33.902Z,70.12
2022-08-30T04:52:01.630Z,68.54
2022-08-30T04:54:29.015Z,67.83
2022-08-30T04:56:56.666Z,66.81
2022-08-30T04:59:24.025Z,69.47
2022-08-30T05:01:52.017Z,69.75
2022-08-30T05:04:19.728Z,65.17
2022-08-30T05:06:47.547Z,65.13
2022-08-30T05:09:15.533Z,65.79
2022-08-30T05:11:43.459Z,65.45
2022-08-30T05:14:11.092Z,65.03
2022-08-30T05:16:38.586Z,66.09
2022-08-30T05:19:07.945Z,65.80
2022-08-30T05:21:35.383Z,66.08
2022-08-30T05:24:02.985Z,67.06
2022-08-30T05:26:33.499Z,68.78
2022-08-30T05:29:01.533Z,68.61
2022-08-30T05:31:34.673Z,68.79
2022-08-30T05:34:03.099Z,67.69
2022-08-30T05:36:32.052Z,67.63
2022-08-30T05:39:00.540Z,68.22
2022-08-30T05:41:29.006Z,66.73
2022-08-30T05:43:58.672Z,66.74
2022-08-30T05:46:29.500Z,66.27
2022-08-30T05:48:57.340Z,66.00
2022-08-30T05:51:26.647Z,65.60
2022-08-30T05:53:54.648Z,65.84
2022-08-30T05:56:25.818Z,66.17
2022-08-30T05:58:54.085Z,64.70
2022-08-30T06:01:30.269Z,62.35
2022-08-30T06:04:04.275Z,61.80
2022-08-30T06:06:34.648Z,57.90
2022-08-30T06:09:05.855Z,58.08
2022-08-30T06:11:33.905Z,55.92
2022-08-30T06:14:01.850Z,55.86
2022-08-30T06:16:29.849Z,54.14
2022-08-30T06:18:58.243Z,55.76
2022-08-30T06:21:28.786Z,54.16
2022-08-30T06:23:56.959Z,53.65
2022-08-30T06:26:24.611Z,53.35
2022-08-30T06:28:52.127Z,54.74
2022-08-30T06:31:21.684Z,54.01
2022-08-30T06:33:49.543Z,52.07
2022-08-30T06:36:19.893Z,53.08
2022-08-30T06:38:50.550Z,51.59
2022-08-30T06:41:20.821Z,51.95
2022-08-30T06:43:49.321Z,52.42
2022-08-30T06:46:22.683Z,52.24
2022-08-30T06:48:50.654Z,50.32
2022-08-30T06:51:23.603Z,51.11
2022-08-30T06:53:51.793Z,50.70
2022-08-30T06:56:19.902Z,50.83
2022-08-30T06:58:48.915Z,50.87
2022-08-30T07:01:23.113Z,51.51
2022-08-30T07:03:51.159Z,49.94
2022-08-30T07:06:19.502Z,50.05
2022-08-30T07:08:47.249Z,48.88
2022-08-30T07:11:15.451Z,49.12
2022-08-30T07:13:43.100Z,48.96
2022-08-30T07:16:12.689Z,50.28
2022-08-30T07:18:56.556Z,50.31
2022-08-30T07:21:24.099Z,49.94
2022-08-30T07:23:53.563Z,51.26
2022-08-30T07:26:30.791Z,51.67
2022-08-30T07:28:59.360Z,49.05
2022-08-30T07:31:26.733Z,49.08
2022-08-30T07:33:54.295Z,48.62
2022-08-30T07:36:23.069Z,49.00
2022-08-30T07:38:51.264Z,49.50
2022-08-30T07:41:22.385Z,50.64
2022-08-30T07:43:50.468Z,49.94
2022-08-30T07:46:18.611Z,48.04
2022-08-30T07:48:46.367Z,49.00
2022-08-30T07:51:18.044Z,48.91
2022-08-30T07:53:45.496Z,47.86
2022-08-30T07:56:14.312Z,47.58
2022-08-30T07:58:41.751Z,48.60
2022-08-30T08:01:11.219Z,47.98
2022-08-30T08:03:42.853Z,46.94
2022-08-30T08:06:12.092Z,46.45
2022-08-30T08:08:40.970Z,44.47
2022-08-30T08:11:13.076Z,45.08
2022-08-30T08:13:53.046Z,46.05
2022-08-30T08:16:24.010Z,47.88
2022-08-30T08:18:52.627Z,45.61
2022-08-30T08:21:20.833Z,45.66
2022-08-30T08:23:48.212Z,43.93
2022-08-30T08:26:15.854Z,43.99
2022-08-30T08:28:44.968Z,43.31
2022-08-30T08:31:21.074Z,42.28
2022-08-30T08:33:48.936Z,42.95
2022-08-30T08:36:16.442Z,42.18
2022-08-30T08:38:43.826Z,41.82
2022-08-30T08:41:45.650Z,40.34
2022-08-30T08:44:22.059Z,41.14
2022-08-30T08:46:57.264Z,41.91
2022-08-30T08:49:24.705Z,41.83
2022-08-30T08:52:13.397Z,41.86
2022-08-30T08:54:48.532Z,40.85
2022-08-30T08:57:17.151Z,41.12
2022-08-30T08:59:45.885Z,40.43
2022-08-30T09:02:24.606Z,41.27
2022-08-30T09:04:56.530Z,41.23
2022-08-30T09:07:30.840Z,40.93
2022-08-30T09:10:00.698Z,41.11
2022-08-30T09:12:28.810Z,39.69
2022-08-30T09:15:03.723Z,39.52
2022-08-30T09:17:49.699Z,39.54
2022-08-30T09:20:31.368Z,39.10
2022-08-30T09:22:59.743Z,39.60
2022-08-30T09:25:28.236Z,41.47
2022-08-30T09:28:09.574Z,39.90
2022-08-30T09:30:38.882Z,39.58
2022-08-30T09:33:19.521Z,41.04
2022-08-30T09:35:49.204Z,37.68
2022-08-30T09:38:30.797Z,40.23
2022-08-30T09:41:00.933Z,39.68
2022-08-30T09:43:34.904Z,40.27
2022-08-30T09:46:02.773Z,41.51
2022-08-30T09:48:33.152Z,41.48
2022-08-30T09:51:11.931Z,40.78
2022-08-30T09:54:07.201Z,40.42
2022-08-30T09:56:40.951Z,39.49
2022-08-30T09:59:17.155Z,41.49
2022-08-30T10:01:52.394Z,40.08
2022-08-30T10:04:44.540Z,41.78
2022-08-30T10:07:17.127Z,40.59
2022-08-30T10:10:12.591Z,41.47
2022-08-30T10:12:58.829Z,40.77
2022-08-30T10:15:33.440Z,41.78
2022-08-30T10:18:16.530Z,41.58
2022-08-30T10:21:00.782Z,42.54
2022-08-30T10:23:32.677Z,42.42
2022-08-30T10:26:13.690Z,42.19
2022-08-30T10:28:55.982Z,41.46
2022-08-30T10:31:44.625Z,42.15
2022-08-30T10:34:24.570Z,41.88
2022-08-30T10:36:59.889Z,41.71
2022-08-30T10:39:32.149Z,41.58
2022-08-30T10:42:07.397Z,41.57
2022-08-30T10:44:38.235Z,40.64
2022-08-30T10:47:44.526Z,41.06
2022-08-30T10:50:24.602Z,40.95
2022-08-30T10:53:05.930Z,42.15
2022-08-30T10:55:49.361Z,40.07
2022-08-30T10:58:18.546Z,37.93
2022-08-30T11:00:58.474Z,39.49
2022-08-30T11:03:47.732Z,38.67
2022-08-30T11:06:37.044Z,39.28
2022-08-30T11:09:20.683Z,37.08
2022-08-30T11:12:26.435Z,39.17
2022-08-30T11:14:54.293Z,38.04
2022-08-30T11:17:40.990Z,38.09
2022-08-30T11:20:24.214Z,39.39
2022-08-30T11:23:16.604Z,37.38
2022-08-30T11:25:58.104Z,35.71
2022-08-30T11:28:37.856Z,38.45
2022-08-30T11:31:26.666Z,37.12
2022-08-30T11:33:57.168Z,36.83
2022-08-30T11:36:38.801Z,37.61
2022-08-30T11:39:44.226Z,37.70
2022-08-30T11:42:30.189Z,36.36
2022-08-30T11:45:22.220Z,37.36
2022-08-30T11:48:00.947Z,36.90
2022-08-30T11:50:55.569Z,38.40
2022-08-30T11:53:37.581Z,36.63
2022-08-30T11:56:27.176Z,35.76
2022-08-30T11:58:58.562Z,37.34
2022-08-30T12:01:49.680Z,34.34
2022-08-30T12:04:19.793Z,35.71
2022-08-30T12:07:00.541Z,35.39
2022-08-30T12:09:29.170Z,36.04
2022-08-30T12:12:02.361Z,34.98
2022-08-30T12:14:41.007Z,35.49
2022-08-30T12:17:43.371Z,36.78
2022-08-30T12:20:17.371Z,35.46
2022-08-30T12:22:45.583Z,34.79
2022-08-30T12:25:26.054Z,34.05
2022-08-30T12:28:13.006Z,33.65
2022-08-30T12:30:42.028Z,35.67
2022-08-30T12:33:15.156Z,35.08
2022-08-30T12:35:44.312Z,36.44
2022-08-30T12:38:29.929Z,36.55
2022-08-30T12:41:00.643Z,35.78
2022-08-30T12:43:40.562Z,36.53
2022-08-30T12:46:11.891Z,35.17
2022-08-30T12:48:40.172Z,36.02
2022-08-30T12:51:10.876Z,35.23
2022-08-30T12:53:42.177Z,35.11
2022-08-30T12:56:12.606Z,33.47
2022-08-30T12:58:51.760Z,34.18
2022-08-30T13:01:26.518Z,33.90
2022-08-30T13:04:25.868Z,34.94
2022-08-30T13:06:58.564Z,33.26
2022-08-30T13:09:44.295Z,34.54
2022-08-30T13:12:25.010Z,34.37
2022-08-30T13:14:53.842Z,35.62
2022-08-30T13:17:26.773Z,34.60
2022-08-30T13:19:59.126Z,35.43
2022-08-30T13:22:38.644Z,35.10
2022-08-30T13:25:08.258Z,35.02
2022-08-30T13:27:37.263Z,34.46
2022-08-30T13:30:13.724Z,34.47
2022-08-30T13:32:42.656Z,34.52
2022-08-30T13:35:11.448Z,34.74
2022-08-30T13:37:49.432Z,31.52
2022-08-30T13:40:20.586Z,32.07
2022-08-30T13:42:48.538Z,32.12
2022-08-30T13:48:05.926Z,32.92
2022-08-30T13:50:35.925Z,32.05
2022-08-30T13:53:03.368Z,31.01
2022-08-30T13:55:31.056Z,31.60
2022-08-30T13:57:58.659Z,31.11
2022-08-30T14:00:26.660Z,31.45
2022-08-30T14:02:57.612Z,30.57
2022-08-30T14:05:50.913Z,31.43
2022-08-30T14:11:12.739Z,30.43
2022-08-30T14:16:31.517Z,32.22
2022-08-30T14:19:00.563Z,32.49
2022-08-30T14:21:28.389Z,33.23
2022-08-30T14:23:57.783Z,33.44
2022-08-30T14:26:33.245Z,33.07
2022-08-30T14:29:05.395Z,33.52
2022-08-30T14:31:38.199Z,33.93
2022-08-30T14:34:07.017Z,33.41
2022-08-30T14:36:36.662Z,33.46
2022-08-30T14:39:08.605Z,33.99
2022-08-30T14:41:43.709Z,32.20
2022-08-30T14:44:14.018Z,33.82
2022-08-30T14:46:42.678Z,33.90
2022-08-30T14:49:11.270Z,32.78
2022-08-30T14:51:39.683Z,32.68
2022-08-30T14:54:07.110Z,33.46
2022-08-30T14:56:36.973Z,35.13
2022-08-30T14:59:05.298Z,34.31
2022-08-30T15:01:34.977Z,35.77
2022-08-30T15:04:06.654Z,35.86
2022-08-30T15:06:36.446Z,36.33
2022-08-30T15:09:05.928Z,35.74
2022-08-30T15:11:33.983Z,36.42
2022-08-30T15:14:01.894Z,35.75
2022-08-30T15:16:35.542Z,35.70
2022-08-30T15:19:04.595Z,37.16
2022-08-30T15:21:35.739Z,36.35
2022-08-30T15:24:04.868Z,37.15
2022-08-30T15:26:32.281Z,37.25
2022-08-30T15:29:00.759Z,37.46
2022-08-30T15:31:31.138Z,36.13
2022-08-30T15:33:59.090Z,37.09
2022-08-30T15:36:28.852Z,37.38
2022-08-30T15:38:56.940Z,37.70
2022-08-30T15:41:24.374Z,36.87
2022-08-30T15:43:52.825Z,37.01
2022-08-30T15:46:29.469Z,36.66
2022-08-30T15:49:27.051Z,38.33
2022-08-30T15:51:54.817Z,37.40
2022-08-30T15:54:23.643Z,37.64
2022-08-30T15:56:59.093Z,38.00
2022-08-30T15:59:29.247Z,37.62
2022-08-30T16:01:57.485Z,38.43
2022-08-30T16:04:25.699Z,38.23
2022-08-30T16:06:53.404Z,39.43
2022-08-30T16:09:21.694Z,39.91
2022-08-30T16:11:49.402Z,38.86
2022-08-30T16:14:16.764Z,40.13
2022-08-30T16:16:46.219Z,40.41
2022-08-30T16:19:13.865Z,40.83
2022-08-30T16:21:42.805Z,40.11
2022-08-30T16:24:13.477Z,40.53
2022-08-30T16:26:42.749Z,40.18
2022-08-30T16:29:12.375Z,39.21
2022-08-30T16:31:40.076Z,39.74
2022-08-30T16:34:07.766Z,40.09
2022-08-30T16:36:36.026Z,41.33
2022-08-30T16:39:08.216Z,39.85
2022-08-30T16:41:37.479Z,39.57
2022-08-30T16:44:05.832Z,39.63
2022-08-30T16:46:34.347Z,39.27
2022-08-30T16:49:02.421Z,38.71
2022-08-30T16:51:31.732Z,38.84
2022-08-30T16:54:03.493Z,39.16
2022-08-30T16:56:33.357Z,39.27
2022-08-30T16:59:02.790Z,39.17
2022-08-30T17:01:41.137Z,38.89
2022-08-30T17:04:09.028Z,38.51
2022-08-30T17:06:37.158Z,38.17
2022-08-30T17:09:06.009Z,38.48
2022-08-30T17:11:35.130Z,38.07
2022-08-30T17:14:03.563Z,38.12
2022-08-30T17:16:31.805Z,38.87
2022-08-30T17:19:00.621Z,38.48
2022-08-30T17:21:29.768Z,39.23
2022-08-30T17:24:01.894Z,39.82
2022-08-30T17:26:32.433Z,38.63
2022-08-30T17:28:59.981Z,38.69
2022-08-30T17:34:17.839Z,38.54
2022-08-30T17:36:45.510Z,38.84
2022-08-30T17:39:13.530Z,38.65
2022-08-30T17:44:32.317Z,39.86
2022-08-30T17:47:00.778Z,40.38
2022-08-30T17:49:29.651Z,39.47
2022-08-30T17:51:57.627Z,39.86
2022-08-30T17:54:28.272Z,40.30
2022-08-30T17:56:55.936Z,40.54
2022-08-30T17:59:25.189Z,41.67
2022-08-30T18:01:54.837Z,41.30
2022-08-30T18:04:24.814Z,41.74
2022-08-30T18:06:54.363Z,42.10
2022-08-30T18:09:22.133Z,42.84
2022-08-30T18:11:50.610Z,43.02
2022-08-30T18:14:18.813Z,41.96
2022-08-30T18:16:49.876Z,42.29
2022-08-30T18:19:24.708Z,43.30
2022-08-30T18:21:53.550Z,43.49
2022-08-30T18:24:21.590Z,43.79
2022-08-30T18:26:49.521Z,43.67
2022-08-30T18:29:26.183Z,44.16
2022-08-30T18:32:00.847Z,44.26
2022-08-30T18:34:29.105Z,44.13
2022-08-30T18:36:57.274Z,44.49
2022-08-30T18:39:24.705Z,44.64
2022-08-30T18:41:54.253Z,45.04
2022-08-30T18:44:28.270Z,44.92
2022-08-30T18:47:00.161Z,44.93
2022-08-30T18:49:32.406Z,45.01
2022-08-30T18:52:01.907Z,44.79
2022-08-30T18:54:29.999Z,45.00
2022-08-30T18:56:57.734Z,45.47
2022-08-30T18:59:35.364Z,46.52
2022-08-30T19:02:09.621Z,46.33
2022-08-30T19:04:37.588Z,46.26
2022-08-30T19:07:07.535Z,46.41
2022-08-30T19:09:35.580Z,46.09
2022-08-30T19:12:09.787Z,46.81
2022-08-30T19:14:39.724Z,46.44
2022-08-30T19:17:07.791Z,46.85
2022-08-30T19:19:46.354Z,46.68
2022-08-30T19:22:19.139Z,46.37
2022-08-30T19:24:48.039Z,47.16
2022-08-30T19:30:10.265Z,46.51
2022-08-30T19:32:38.128Z,46.77
2022-08-30T19:35:06.800Z,47.60
2022-08-30T19:37:35.006Z,46.90
2022-08-30T19:40:08.729Z,47.91
2022-08-30T19:45:24.758Z,48.27
2022-08-30T19:47:53.395Z,48.03
2022-08-30T19:50:21.770Z,48.52
2022-08-30T19:52:54.027Z,50.19
2022-08-30T19:55:28.238Z,49.78
2022-08-30T19:58:12.053Z,49.23
2022-08-30T20:00:45.073Z,48.55
2022-08-30T20:03:21.947Z,48.27
2022-08-30T20:05:49.380Z,48.72
2022-08-30T20:08:17.069Z,48.68
2022-08-30T20:10:46.772Z,49.84
2022-08-30T20:13:14.643Z,50.30
2022-08-30T20:15:42.111Z,49.53
2022-08-30T20:18:14.353Z,49.74
2022-08-30T20:20:49.845Z,50.76
2022-08-30T20:23:19.752Z,49.60
2022-08-30T20:24:23.739Z,38.69
2022-08-30T20:24:24.915Z,39.44
2022-08-30T20:25:51.565Z,49.28
2022-08-30T20:28:20.576Z,47.42
2022-08-30T20:30:48.634Z,46.99
2022-08-30T20:33:17.488Z,48.80
2022-08-30T20:35:49.009Z,48.38
2022-08-30T20:38:21.734Z,49.10
2022-08-30T20:40:52.283Z,49.67
2022-08-30T20:43:21.860Z,49.42
2022-08-30T20:45:49.795Z,50.61
2022-08-30T20:48:17.710Z,49.29
2022-08-30T20:50:45.336Z,50.29
2022-08-30T20:53:13.578Z,50.85
2022-08-30T20:55:45.816Z,48.98
2022-08-30T20:58:14.481Z,49.49
2022-08-30T21:00:45.791Z,48.67
2022-08-30T21:03:27.628Z,48.77
2022-08-30T21:05:56.438Z,48.77
2022-08-30T21:08:24.404Z,48.64
2022-08-30T21:10:52.515Z,49.50
2022-08-30T21:13:20.227Z,49.41
2022-08-30T21:15:54.933Z,50.01
2022-08-30T21:18:22.409Z,50.06
2022-08-30T21:20:50.052Z,49.97
2022-08-30T21:23:17.431Z,48.83
2022-08-30T21:25:44.823Z,49.90
2022-08-30T21:28:12.468Z,49.45
2022-08-30T21:30:39.904Z,49.87
2022-08-30T21:33:07.783Z,50.12
2022-08-30T21:35:55.815Z,50.81
2022-08-30T21:38:23.430Z,50.73
2022-08-30T21:40:51.060Z,50.45
2022-08-30T21:43:18.443Z,50.97
2022-08-30T21:45:45.864Z,51.88
2022-08-30T21:48:14.076Z,51.74
2022-08-30T21:50:42.575Z,52.12
2022-08-30T21:53:10.163Z,51.27
2022-08-30T21:55:37.880Z,51.43
2022-08-30T21:58:05.247Z,51.52
2022-08-30T22:00:33.599Z,50.63
2022-08-30T22:03:01.387Z,51.58
2022-08-30T22:05:28.774Z,51.18
2022-08-30T22:07:56.148Z,52.21
2022-08-30T22:10:23.812Z,52.10
2022-08-30T22:12:51.271Z,51.27
2022-08-30T22:15:18.674Z,51.64
2022-08-30T22:17:46.300Z,52.54
2022-08-30T22:20:18.318Z,52.33
2022-08-30T22:22:46.406Z,51.79
2022-08-30T22:25:13.744Z,51.72
2022-08-30T22:27:41.103Z,51.55
2022-08-30T22:30:09.255Z,52.29
2022-08-30T22:32:38.230Z,53.35
2022-08-30T22:35:06.420Z,52.90
2022-08-30T22:37:34.907Z,54.14
2022-08-30T22:40:02.477Z,54.08
2022-08-30T22:42:29.901Z,53.67
2022-08-30T22:44:57.533Z,52.06
2022-08-30T22:47:24.904Z,53.37
2022-08-30T22:49:52.331Z,54.23
2022-08-30T22:52:24.225Z,54.49
2022-08-30T22:54:52.995Z,54.33
2022-08-30T22:57:20.635Z,54.03
2022-08-30T22:59:48.681Z,54.31
2022-08-30T23:02:16.133Z,54.40
2022-08-30T23:04:43.815Z,54.20
2022-08-30T23:07:11.234Z,54.46
2022-08-30T23:09:38.640Z,54.84
2022-08-30T23:12:06.402Z,54.74
2022-08-30T23:14:33.771Z,54.97
2022-08-30T23:17:01.187Z,55.86
2022-08-30T23:19:28.835Z,56.30
2022-08-30T23:21:56.173Z,55.95
2022-08-30T23:24:41.925Z,55.75
2022-08-30T23:27:35.048Z,56.62
2022-08-30T23:30:21.397Z,57.94
2022-08-30T23:33:07.666Z,58.33
2022-08-30T23:35:54.971Z,57.56
2022-08-30T23:38:41.650Z,56.34
2022-08-30T23:41:29.346Z,55.23
2022-08-30T23:44:20.501Z,57.72
2022-08-30T23:47:06.530Z,57.47
2022-08-30T23:49:53.138Z,58.32
2022-08-30T23:52:39.188Z,58.27
2022-08-30T23:55:25.861Z,58.31
2022-08-30T23:58:11.902Z,58.60
